createdAt,value
2023-08-16T00:01:01.980Z,50.81
2023-08-16T00:03:31.776Z,50.48
2023-08-16T00:06:10.281Z,50.59
2023-08-16T00:08:40.018Z,50.26
2023-08-16T00:11:10.052Z,50.29
2023-08-16T00:13:40.375Z,50.63
2023-08-16T00:16:10.144Z,50.51
2023-08-16T00:18:39.889Z,50.72
2023-08-16T00:21:09.591Z,50.61
2023-08-16T00:23:39.273Z,49.05
2023-08-16T00:26:09.173Z,48.67
2023-08-16T00:28:39.101Z,48.13
2023-08-16T00:31:08.802Z,48.11
2023-08-16T00:33:38.619Z,48.23
2023-08-16T00:36:10.213Z,48.14
2023-08-16T00:38:45.235Z,48.18
2023-08-16T00:41:15.512Z,48.10
2023-08-16T00:43:45.171Z,48.14
2023-08-16T00:46:15.634Z,48.03
2023-08-16T00:48:45.778Z,48.41
2023-08-16T00:51:15.473Z,48.65
2023-08-16T00:53:45.388Z,48.57
2023-08-16T00:56:16.341Z,48.26
2023-08-16T00:58:46.541Z,48.01
2023-08-16T01:01:16.314Z,48.38
2023-08-16T01:03:46.151Z,48.39
2023-08-16T01:06:16.436Z,47.56
2023-08-16T01:08:46.170Z,47.91
2023-08-16T01:11:55.476Z,46.41
2023-08-16T01:14:59.225Z,46.47
2023-08-16T01:17:29.111Z,47.92
2023-08-16T01:20:00.081Z,47.59
2023-08-16T01:22:41.567Z,46.96
2023-08-16T01:25:14.767Z,46.63
2023-08-16T01:27:45.474Z,47.55
2023-08-16T01:30:15.329Z,47.55
2023-08-16T01:32:45.273Z,47.18
2023-08-16T01:35:14.956Z,46.87
2023-08-16T01:37:45.173Z,47.11
2023-08-16T01:40:15.031Z,47.00
2023-08-16T01:42:46.903Z,46.29
2023-08-16T01:45:16.977Z,46.79
2023-08-16T01:47:47.884Z,46.89
2023-08-16T01:50:17.720Z,46.81
2023-08-16T01:52:47.507Z,46.72
2023-08-16T01:55:17.484Z,46.59
2023-08-16T01:57:47.317Z,46.71
2023-08-16T02:00:18.194Z,46.73
2023-08-16T02:02:48.007Z,46.54
2023-08-16T02:05:17.815Z,46.98
2023-08-16T02:07:47.594Z,46.75
2023-08-16T02:10:17.368Z,46.53
2023-08-16T02:12:47.035Z,46.37
2023-08-16T02:15:17.000Z,46.76
2023-08-16T02:17:46.667Z,46.55
2023-08-16T02:20:16.358Z,46.22
2023-08-16T02:22:46.062Z,45.79
2023-08-16T02:25:15.804Z,46.22
2023-08-16T02:27:45.516Z,46.15
2023-08-16T02:30:21.247Z,45.68
2023-08-16T02:32:51.019Z,45.73
2023-08-16T02:35:20.761Z,45.99
2023-08-16T02:37:50.463Z,45.64
2023-08-16T02:40:20.230Z,45.58
2023-08-16T02:42:51.996Z,45.70
2023-08-16T02:45:21.721Z,45.51
2023-08-16T02:47:52.545Z,45.37
2023-08-16T02:50:23.532Z,45.47
2023-08-16T02:52:53.216Z,45.39
2023-08-16T02:55:22.991Z,45.32
2023-08-16T02:57:52.842Z,45.12
2023-08-16T03:00:22.624Z,45.17
2023-08-16T03:02:52.349Z,45.04
2023-08-16T03:05:22.241Z,45.03
2023-08-16T03:07:52.009Z,45.35
2023-08-16T03:10:21.770Z,44.97
2023-08-16T03:12:51.526Z,44.67
2023-08-16T03:15:21.216Z,44.71
2023-08-16T03:17:50.985Z,44.34
2023-08-16T03:20:20.811Z,44.45
2023-08-16T03:22:50.528Z,44.61
2023-08-16T03:25:20.504Z,44.70
2023-08-16T03:27:50.213Z,44.83
2023-08-16T03:30:19.941Z,44.96
2023-08-16T03:32:50.169Z,44.70
2023-08-16T03:35:19.972Z,44.48
2023-08-16T03:37:49.652Z,44.35
2023-08-16T03:40:36.491Z,43.35
2023-08-16T03:43:06.458Z,44.72
2023-08-16T03:48:31.298Z,44.40
2023-08-16T03:51:01.109Z,44.58
2023-08-16T03:53:33.949Z,43.39
2023-08-16T03:56:03.624Z,44.22
2023-08-16T03:58:33.338Z,44.25
2023-08-16T04:01:03.382Z,44.44
2023-08-16T04:03:33.243Z,44.60
2023-08-16T04:06:03.007Z,44.51
2023-08-16T04:08:32.710Z,44.34
2023-08-16T04:11:02.390Z,43.69
2023-08-16T04:13:35.098Z,43.63
2023-08-16T04:16:08.172Z,43.61
2023-08-16T04:18:41.907Z,42.82
2023-08-16T04:21:12.594Z,43.82
2023-08-16T04:23:42.300Z,43.34
2023-08-16T04:26:12.024Z,43.83
2023-08-16T04:28:42.008Z,43.21
2023-08-16T04:31:11.753Z,43.63
2023-08-16T04:33:41.427Z,43.34
2023-08-16T04:36:11.303Z,43.59
2023-08-16T04:38:41.010Z,43.37
2023-08-16T04:41:10.699Z,43.12
2023-08-16T04:43:40.386Z,43.53
2023-08-16T04:46:10.250Z,43.60
2023-08-16T04:48:39.943Z,43.61
2023-08-16T04:51:09.615Z,43.54
2023-08-16T04:53:39.289Z,43.52
2023-08-16T04:56:09.042Z,43.67
2023-08-16T04:58:38.816Z,43.48
2023-08-16T05:01:08.577Z,43.72
2023-08-16T05:03:38.341Z,43.27
2023-08-16T05:06:08.241Z,43.28
2023-08-16T05:08:37.906Z,43.24
2023-08-16T05:11:07.664Z,43.13
2023-08-16T05:13:37.469Z,43.20
2023-08-16T05:16:12.835Z,42.73
2023-08-16T05:18:42.634Z,43.66
2023-08-16T05:21:21.031Z,42.53
2023-08-16T05:23:54.052Z,43.11
2023-08-16T05:26:26.751Z,43.26
2023-08-16T05:28:56.546Z,43.63
2023-08-16T05:31:44.434Z,42.98
2023-08-16T05:34:16.815Z,44.02
2023-08-16T05:36:56.404Z,43.70
2023-08-16T05:39:32.336Z,44.13
2023-08-16T05:42:04.726Z,44.60
2023-08-16T05:44:40.538Z,44.39
2023-08-16T05:47:10.290Z,44.62
2023-08-16T05:49:39.984Z,44.70
2023-08-16T05:52:09.687Z,44.40
2023-08-16T05:54:39.670Z,44.59
2023-08-16T05:57:09.378Z,44.24
2023-08-16T05:59:39.233Z,44.35
2023-08-16T06:02:11.801Z,44.44
2023-08-16T06:04:41.501Z,44.46
2023-08-16T06:07:11.184Z,44.22
2023-08-16T06:09:41.240Z,44.08
2023-08-16T06:12:10.939Z,43.88
2023-08-16T06:14:40.624Z,44.25
2023-08-16T06:17:10.352Z,43.62
2023-08-16T06:19:42.557Z,43.67
2023-08-16T06:22:12.237Z,44.00
2023-08-16T06:24:41.949Z,44.09
2023-08-16T06:27:11.717Z,43.81
2023-08-16T06:29:41.391Z,44.39
2023-08-16T06:32:11.123Z,44.47
2023-08-16T06:34:40.976Z,44.45
2023-08-16T06:37:10.716Z,44.78
2023-08-16T06:39:40.994Z,44.95
2023-08-16T06:42:10.792Z,44.72
2023-08-16T06:44:40.450Z,45.18
2023-08-16T06:47:10.306Z,45.14
2023-08-16T06:49:39.992Z,45.15
2023-08-16T06:52:09.815Z,45.25
2023-08-16T06:54:39.567Z,45.35
2023-08-16T06:57:09.274Z,45.72
2023-08-16T06:59:39.777Z,45.67
2023-08-16T07:02:10.922Z,46.24
2023-08-16T07:04:44.721Z,46.13
2023-08-16T07:07:15.273Z,46.38
2023-08-16T07:09:44.920Z,46.60
2023-08-16T07:12:14.597Z,46.82
2023-08-16T07:14:44.294Z,46.82
2023-08-16T07:17:14.079Z,46.32
2023-08-16T07:19:45.366Z,46.80
2023-08-16T07:22:15.081Z,47.09
2023-08-16T07:24:47.627Z,47.17
2023-08-16T07:27:17.345Z,47.07
2023-08-16T07:29:47.132Z,47.24
2023-08-16T07:32:16.807Z,47.28
2023-08-16T07:34:46.785Z,47.79
2023-08-16T07:37:16.533Z,47.79
2023-08-16T07:39:47.098Z,47.60
2023-08-16T07:42:16.807Z,47.75
2023-08-16T07:44:46.527Z,47.67
2023-08-16T07:47:17.418Z,48.21
2023-08-16T07:49:47.086Z,48.12
2023-08-16T07:52:16.752Z,48.33
2023-08-16T07:54:46.864Z,48.24
2023-08-16T07:57:17.494Z,49.06
2023-08-16T07:59:47.202Z,49.12
2023-08-16T08:02:16.853Z,50.12
2023-08-16T08:04:47.683Z,50.61
2023-08-16T08:07:17.598Z,51.40
2023-08-16T08:09:47.242Z,52.04
2023-08-16T08:12:17.210Z,52.59
2023-08-16T08:14:46.915Z,52.83
2023-08-16T08:17:16.610Z,53.23
2023-08-16T08:19:46.298Z,53.00
2023-08-16T08:22:16.185Z,53.23
2023-08-16T08:24:45.932Z,53.55
2023-08-16T08:27:15.626Z,53.65
2023-08-16T08:29:45.345Z,53.53
2023-08-16T08:32:15.050Z,53.60
2023-08-16T08:34:45.216Z,54.09
2023-08-16T08:37:14.872Z,54.33
2023-08-16T08:39:44.686Z,53.98
2023-08-16T08:42:14.471Z,54.38
2023-08-16T08:44:44.607Z,54.64
2023-08-16T08:47:17.307Z,54.85
2023-08-16T08:49:47.329Z,54.93
2023-08-16T08:52:17.025Z,54.97
2023-08-16T08:54:49.611Z,54.92
2023-08-16T08:57:19.356Z,55.16
2023-08-16T08:59:51.942Z,55.23
2023-08-16T09:02:22.323Z,55.68
2023-08-16T09:04:53.618Z,55.41
2023-08-16T09:07:23.446Z,55.87
2023-08-16T09:09:53.137Z,55.98
2023-08-16T09:12:23.179Z,55.74
2023-08-16T09:14:53.059Z,55.98
2023-08-16T09:17:22.893Z,56.09
2023-08-16T09:19:53.450Z,56.30
2023-08-16T09:22:23.699Z,55.99
2023-08-16T09:24:58.193Z,56.25
2023-08-16T09:27:29.084Z,56.74
2023-08-16T09:29:58.774Z,56.62
2023-08-16T09:32:33.361Z,56.98
2023-08-16T09:35:03.953Z,56.71
2023-08-16T09:37:34.550Z,56.92
2023-08-16T09:40:06.995Z,57.32
2023-08-16T09:42:37.084Z,57.09
2023-08-16T09:45:07.072Z,57.00
2023-08-16T09:47:59.717Z,57.18
2023-08-16T09:50:31.956Z,56.94
2023-08-16T09:53:18.084Z,56.98
2023-08-16T09:55:52.203Z,57.35
2023-08-16T09:58:21.844Z,57.26
2023-08-16T10:00:51.787Z,57.58
2023-08-16T10:03:21.480Z,57.30
2023-08-16T10:05:51.402Z,57.20
2023-08-16T10:08:21.519Z,57.53
2023-08-16T10:10:51.207Z,57.27
2023-08-16T10:13:20.989Z,57.51
2023-08-16T10:15:50.712Z,57.52
2023-08-16T10:18:20.449Z,57.81
2023-08-16T10:20:50.478Z,58.01
2023-08-16T10:23:22.437Z,58.04
2023-08-16T10:25:52.548Z,58.18
2023-08-16T10:28:23.072Z,57.98
2023-08-16T10:33:36.130Z,58.82
2023-08-16T10:36:06.204Z,58.38
2023-08-16T10:38:40.095Z,58.73
2023-08-16T10:41:16.819Z,58.75
2023-08-16T10:43:51.074Z,59.43
2023-08-16T10:46:34.667Z,59.54
2023-08-16T10:49:05.695Z,58.90
2023-08-16T10:51:46.381Z,59.62
2023-08-16T10:54:16.227Z,59.56
2023-08-16T10:56:51.737Z,59.32
2023-08-16T10:59:21.640Z,59.42
2023-08-16T11:01:53.388Z,59.17
2023-08-16T11:04:23.160Z,59.42
2023-08-16T11:07:02.211Z,59.10
2023-08-16T11:09:33.125Z,59.72
2023-08-16T11:12:06.123Z,59.81
2023-08-16T11:14:37.518Z,59.48
2023-08-16T11:17:07.432Z,59.44
2023-08-16T11:19:37.308Z,59.50
2023-08-16T11:22:08.718Z,59.24
2023-08-16T11:24:39.534Z,59.70
2023-08-16T11:27:09.532Z,59.66
2023-08-16T11:29:40.327Z,59.41
2023-08-16T11:32:10.109Z,59.76
2023-08-16T11:34:39.808Z,59.42
2023-08-16T11:37:09.639Z,59.71
2023-08-16T11:39:39.408Z,59.62
2023-08-16T11:42:09.169Z,59.59
2023-08-16T11:44:42.646Z,59.94
2023-08-16T11:47:15.325Z,59.72
2023-08-16T11:49:45.112Z,59.59
2023-08-16T11:52:15.326Z,59.97
2023-08-16T11:54:45.035Z,59.58
2023-08-16T11:57:22.468Z,60.14
2023-08-16T11:59:58.708Z,60.15
2023-08-16T12:02:28.617Z,59.41
2023-08-16T12:04:58.440Z,59.44
2023-08-16T12:07:29.232Z,59.71
2023-08-16T12:10:00.684Z,59.94
2023-08-16T12:12:36.517Z,60.24
2023-08-16T12:15:06.725Z,59.67
2023-08-16T12:17:36.339Z,59.40
2023-08-16T12:20:07.697Z,59.77
2023-08-16T12:22:38.274Z,59.51
2023-08-16T12:25:08.428Z,59.98
2023-08-16T12:27:38.188Z,59.84
2023-08-16T12:30:09.931Z,59.90
2023-08-16T12:32:39.706Z,59.72
2023-08-16T12:35:09.741Z,59.85
2023-08-16T12:40:15.136Z,60.09
2023-08-16T12:42:44.816Z,59.83
2023-08-16T12:45:14.505Z,60.10
2023-08-16T12:47:44.201Z,60.18
2023-08-16T12:50:13.895Z,60.50
2023-08-16T12:52:43.611Z,60.56
2023-08-16T12:55:13.380Z,60.32
2023-08-16T12:57:43.354Z,60.39
2023-08-16T13:08:04.093Z,60.26
2023-08-16T13:10:38.345Z,60.66
2023-08-16T13:13:31.814Z,60.36
2023-08-16T13:21:18.894Z,60.92
2023-08-16T13:24:05.262Z,60.84
2023-08-16T13:29:31.132Z,61.06
2023-08-16T13:32:06.724Z,61.02
2023-08-16T13:39:43.133Z,60.95
2023-08-16T13:47:19.372Z,61.14
2023-08-16T13:49:49.216Z,60.76
2023-08-16T13:52:18.972Z,60.96
2023-08-16T13:54:48.635Z,61.16
2023-08-16T13:57:18.341Z,60.81
2023-08-16T13:59:48.140Z,60.95
2023-08-16T14:02:17.971Z,61.23
2023-08-16T14:04:47.632Z,60.75
2023-08-16T14:07:17.346Z,60.80
2023-08-16T14:09:47.073Z,61.15
2023-08-16T14:12:16.869Z,61.25
2023-08-16T14:14:46.625Z,61.20
2023-08-16T14:17:16.543Z,60.80
2023-08-16T14:19:46.310Z,61.27
2023-08-16T14:22:15.981Z,60.86
2023-08-16T14:24:45.611Z,60.97
2023-08-16T14:27:15.366Z,60.96
2023-08-16T14:29:45.065Z,61.24
2023-08-16T14:32:14.794Z,60.80
2023-08-16T14:34:44.523Z,61.14
2023-08-16T14:37:14.308Z,60.98
2023-08-16T14:39:45.105Z,61.01
2023-08-16T14:42:14.974Z,61.29
2023-08-16T14:44:44.687Z,60.83
2023-08-16T14:47:14.398Z,61.22
2023-08-16T14:49:45.553Z,61.08
2023-08-16T14:52:15.254Z,60.90
2023-08-16T14:54:45.418Z,60.82
2023-08-16T14:57:15.116Z,61.12
2023-08-16T14:59:44.851Z,60.76
2023-08-16T15:02:15.799Z,61.12
2023-08-16T15:04:45.505Z,60.79
2023-08-16T15:07:16.541Z,60.79
2023-08-16T15:09:46.236Z,60.73
2023-08-16T15:12:15.890Z,61.28
2023-08-16T15:14:45.573Z,60.80
2023-08-16T15:17:15.247Z,60.87
2023-08-16T15:19:45.013Z,60.70
2023-08-16T15:22:14.713Z,60.83
2023-08-16T15:24:44.474Z,60.85
2023-08-16T15:27:15.100Z,60.85
2023-08-16T15:29:44.747Z,60.88
2023-08-16T15:32:17.538Z,61.21
2023-08-16T15:34:47.862Z,61.14
2023-08-16T15:37:17.626Z,61.05
2023-08-16T15:39:47.895Z,60.91
2023-08-16T15:42:17.586Z,61.02
2023-08-16T15:44:47.301Z,61.22
2023-08-16T15:47:17.051Z,61.28
2023-08-16T15:49:46.794Z,61.28
2023-08-16T15:52:16.754Z,61.03
2023-08-16T15:54:46.411Z,60.63
2023-08-16T15:57:16.060Z,60.97
2023-08-16T15:59:48.563Z,61.28
2023-08-16T16:02:18.833Z,60.90
2023-08-16T16:04:50.325Z,61.18
2023-08-16T16:07:20.083Z,61.20
2023-08-16T16:09:49.807Z,61.11
2023-08-16T16:12:19.997Z,60.85
2023-08-16T16:14:49.669Z,61.40
2023-08-16T16:17:24.494Z,61.14
2023-08-16T16:19:54.646Z,60.84
2023-08-16T16:22:24.337Z,61.53
2023-08-16T16:24:54.115Z,61.10
2023-08-16T16:27:24.256Z,61.40
2023-08-16T16:29:54.411Z,61.39
2023-08-16T16:32:24.452Z,60.84
2023-08-16T16:34:54.356Z,61.36
2023-08-16T16:37:26.861Z,61.44
2023-08-16T16:39:56.539Z,61.12
2023-08-16T16:42:26.501Z,61.15
2023-08-16T16:44:56.382Z,61.39
2023-08-16T16:47:26.349Z,61.56
2023-08-16T16:49:56.333Z,61.14
2023-08-16T16:52:26.078Z,60.95
2023-08-16T16:54:55.790Z,60.99
2023-08-16T16:57:28.519Z,61.42
2023-08-16T17:00:00.328Z,61.43
2023-08-16T17:02:30.077Z,61.13
2023-08-16T17:04:59.821Z,61.14
2023-08-16T17:07:29.721Z,61.42
2023-08-16T17:10:00.062Z,61.36
2023-08-16T17:12:29.895Z,61.18
2023-08-16T17:15:01.642Z,61.19
2023-08-16T17:17:31.384Z,61.28
2023-08-16T17:20:01.107Z,61.37
2023-08-16T17:22:35.096Z,60.99
2023-08-16T17:25:05.321Z,61.48
2023-08-16T17:27:35.004Z,61.50
2023-08-16T17:30:04.989Z,61.04
2023-08-16T17:32:34.818Z,61.28
2023-08-16T17:35:04.518Z,61.45
2023-08-16T17:37:34.213Z,61.54
2023-08-16T17:40:04.117Z,61.62
2023-08-16T17:42:33.787Z,61.42
2023-08-16T17:45:03.428Z,61.18
2023-08-16T17:47:34.034Z,61.31
2023-08-16T17:50:07.166Z,61.62
2023-08-16T17:52:36.839Z,61.49
2023-08-16T17:55:06.737Z,61.38
2023-08-16T17:57:36.535Z,61.45
2023-08-16T18:00:07.285Z,61.47
2023-08-16T18:02:37.072Z,61.95
2023-08-16T18:05:07.084Z,61.87
2023-08-16T18:07:36.879Z,61.50
2023-08-16T18:10:06.848Z,61.80
2023-08-16T18:12:36.799Z,61.68
2023-08-16T18:15:09.367Z,61.41
2023-08-16T18:17:39.143Z,61.87
2023-08-16T18:20:11.336Z,61.84
2023-08-16T18:22:41.076Z,61.58
2023-08-16T18:25:10.963Z,61.38
2023-08-16T18:27:41.367Z,61.47
2023-08-16T18:30:11.414Z,61.40
2023-08-16T18:32:41.113Z,61.67
2023-08-16T18:35:11.253Z,61.44
2023-08-16T18:37:40.963Z,61.44
2023-08-16T18:40:12.187Z,61.20
2023-08-16T18:42:42.256Z,61.38
2023-08-16T18:45:12.172Z,61.75
2023-08-16T18:47:41.961Z,61.47
2023-08-16T18:50:11.978Z,61.66
2023-08-16T18:52:41.724Z,61.80
2023-08-16T18:55:11.765Z,61.57
2023-08-16T18:57:41.458Z,62.03
2023-08-16T19:00:12.821Z,61.45
2023-08-16T19:02:42.630Z,62.12
2023-08-16T19:05:12.386Z,62.12
2023-08-16T19:07:42.647Z,61.85
2023-08-16T19:10:12.490Z,61.92
2023-08-16T19:12:42.235Z,61.64
2023-08-16T19:15:12.270Z,61.62
2023-08-16T19:17:42.255Z,61.50
2023-08-16T19:20:12.311Z,61.63
2023-08-16T19:22:41.996Z,62.15
2023-08-16T19:25:11.939Z,61.73
2023-08-16T19:27:42.396Z,61.69
2023-08-16T19:30:12.462Z,61.95
2023-08-16T19:32:42.190Z,61.98
2023-08-16T19:35:13.314Z,61.96
2023-08-16T19:37:44.490Z,61.87
2023-08-16T19:40:14.655Z,61.57
2023-08-16T19:42:45.419Z,62.12
2023-08-16T19:45:15.102Z,61.50
2023-08-16T19:47:47.545Z,61.46
2023-08-16T19:50:21.835Z,62.04
2023-08-16T19:52:52.431Z,61.75
2023-08-16T19:55:22.322Z,61.85
2023-08-16T19:57:52.845Z,61.77
2023-08-16T20:00:23.079Z,62.03
2023-08-16T20:02:52.795Z,62.05
2023-08-16T20:05:22.604Z,61.91
2023-08-16T20:07:52.309Z,61.77
2023-08-16T20:10:22.062Z,61.62
2023-08-16T20:12:51.723Z,61.56
2023-08-16T20:15:21.590Z,61.52
2023-08-16T20:17:51.270Z,61.86
2023-08-16T20:20:21.072Z,61.76
2023-08-16T20:22:50.976Z,61.96
2023-08-16T20:25:20.794Z,61.82
2023-08-16T20:27:50.489Z,62.06
2023-08-16T20:30:20.211Z,61.81
2023-08-16T20:32:49.883Z,61.54
2023-08-16T20:35:22.808Z,62.03
2023-08-16T20:37:52.510Z,62.06
2023-08-16T20:40:22.220Z,61.98
2023-08-16T20:42:51.993Z,61.72
2023-08-16T20:45:21.832Z,61.56
2023-08-16T20:47:51.572Z,62.01
2023-08-16T20:50:22.684Z,61.55
2023-08-16T20:52:52.381Z,61.95
2023-08-16T20:55:22.315Z,61.88
2023-08-16T20:57:52.007Z,61.66
2023-08-16T21:00:21.696Z,62.06
2023-08-16T21:02:51.451Z,61.96
2023-08-16T21:05:21.313Z,61.29
2023-08-16T21:07:51.066Z,61.56
2023-08-16T21:10:20.772Z,61.65
2023-08-16T21:12:50.417Z,61.73
2023-08-16T21:15:21.268Z,61.53
2023-08-16T21:17:51.024Z,61.56
2023-08-16T21:20:23.548Z,61.58
2023-08-16T21:22:55.138Z,61.77
2023-08-16T21:25:24.841Z,61.74
2023-08-16T21:27:54.544Z,61.84
2023-08-16T21:30:24.334Z,61.77
2023-08-16T21:32:54.096Z,61.84
2023-08-16T21:35:24.924Z,61.63
2023-08-16T21:37:54.898Z,61.69
2023-08-16T21:40:24.637Z,61.61
2023-08-16T21:42:54.292Z,61.47
2023-08-16T21:45:24.019Z,61.69
2023-08-16T21:47:53.818Z,61.59
2023-08-16T21:50:23.563Z,61.23
2023-08-16T21:52:54.112Z,61.83
2023-08-16T21:55:23.764Z,61.27
2023-08-16T21:57:53.426Z,61.76
2023-08-16T22:00:23.328Z,61.84
2023-08-16T22:02:53.055Z,61.61
2023-08-16T22:05:22.708Z,61.54
2023-08-16T22:07:52.423Z,62.17
2023-08-16T22:10:22.201Z,61.98
2023-08-16T22:12:51.896Z,62.13
2023-08-16T22:15:21.645Z,62.41
2023-08-16T22:17:51.392Z,62.01
2023-08-16T22:20:21.220Z,61.99
2023-08-16T22:22:50.915Z,62.06
2023-08-16T22:25:20.636Z,64.59
2023-08-16T22:27:50.818Z,65.17
2023-08-16T22:30:20.466Z,63.21
2023-08-16T22:32:52.531Z,61.52
2023-08-16T22:35:22.209Z,59.96
2023-08-16T22:37:51.893Z,58.12
2023-08-16T22:40:21.663Z,57.13
2023-08-16T22:42:51.349Z,55.95
2023-08-16T22:45:21.074Z,54.59
2023-08-16T22:47:50.810Z,53.66
2023-08-16T22:50:22.262Z,53.73
2023-08-16T22:52:52.296Z,52.60
2023-08-16T22:55:22.079Z,52.03
2023-08-16T22:57:54.728Z,51.11
2023-08-16T23:00:24.567Z,51.46
2023-08-16T23:02:54.252Z,51.24
2023-08-16T23:05:24.905Z,51.12
2023-08-16T23:07:58.055Z,51.16
2023-08-16T23:10:27.758Z,50.69
2023-08-16T23:12:57.467Z,50.78
2023-08-16T23:15:27.664Z,50.51
2023-08-16T23:17:57.578Z,50.45
2023-08-16T23:20:27.367Z,50.27
2023-08-16T23:22:57.017Z,50.04
2023-08-16T23:25:26.704Z,50.06
2023-08-16T23:27:56.763Z,49.92
2023-08-16T23:30:26.502Z,49.76
2023-08-16T23:32:56.254Z,49.70
2023-08-16T23:35:28.522Z,49.37
2023-08-16T23:37:58.310Z,49.36
2023-08-16T23:40:41.945Z,49.04
2023-08-16T23:43:11.651Z,49.42
2023-08-16T23:45:51.642Z,49.20
2023-08-16T23:48:21.387Z,49.32
2023-08-16T23:50:51.304Z,49.46
2023-08-16T23:53:20.951Z,49.35
2023-08-16T23:55:54.570Z,48.99
2023-08-16T23:58:24.272Z,49.36
